Terminal Aerodrome Forecast
Issued by NWS Quad Cities IA IL

Home | Current Version | Previous Version | Text Only | Print | Product List | Glossary Off
Versions: 1 2 3 4 5 6 7 8 9 10 11 12 13 14 15 16 17 18 19 20 21

737
FTUS43 KDVN 271725
TAFDBQ
TAF
KDBQ 271725Z 2718/2818 19012KT P6SM FEW120
     FM272300 13007KT P6SM BKN120
     FM280400 14009KT 5SM -SHRA VCTS BKN030CB
     FM280800 16007KT 2SM BR OVC005
     FM281500 19010KT 4SM BR OVC009=

USA.gov is the U.S. government's official web portal to all federal, state and local government web resources and services.